Time;durP1;ratioP1;P1;durP2;ratioP2;P2;SDS_P1;SDS_P2;PMS_P1;PMS_P2;Temp;Humidity;BMP_temperature;BMP_pressure;BME280_temperature;BME280_humidity;BME280_pressure;Samples;Min_cycle;Max_cycle;Signal;HPM_P1;HPM_P2
2021/10/30 00:01:32;;;;;;;;;229.00;216.00;13.80;47.60;;;;;;5055978;28;9421;-62
2021/10/30 00:03:57;;;;;;;;;213.25;194.50;13.80;47.60;;;;;;5055638;28;8831;-62
2021/10/30 00:06:23;;;;;;;;;218.75;209.25;13.60;48.30;;;;;;5055859;28;8751;-61
2021/10/30 00:08:49;;;;;;;;;203.00;195.50;13.60;48.80;;;;;;5055915;28;8794;-61
2021/10/30 00:11:16;;;;;;;;;221.75;203.00;13.70;48.70;;;;;;5056016;28;8885;-62
2021/10/30 00:13:42;;;;;;;;;226.00;214.00;13.70;48.30;;;;;;5055647;28;8802;-63
2021/10/30 00:16:08;;;;;;;;;229.00;215.50;13.70;47.90;;;;;;5055882;28;8873;-62
2021/10/30 00:18:34;;;;;;;;;221.50;211.25;13.80;47.30;;;;;;5055886;28;9571;-60
2021/10/30 00:21:00;;;;;;;;;203.50;195.50;13.70;47.10;;;;;;5055668;28;8885;-63
2021/10/30 00:23:26;;;;;;;;;212.25;194.75;13.70;47.10;;;;;;5055524;28;8892;-63
2021/10/30 00:25:52;;;;;;;;;213.00;200.75;13.70;47.20;;;;;;5055464;28;8767;-63
2021/10/30 00:28:17;;;;;;;;;226.75;215.75;13.60;47.40;;;;;;5055644;28;8771;-62
2021/10/30 00:30:44;;;;;;;;;203.50;199.00;13.60;47.20;;;;;;5055371;28;9391;-61
2021/10/30 00:33:10;;;;;;;;;205.25;192.50;13.50;47.60;;;;;;5055389;28;8956;-62
2021/10/30 00:35:36;;;;;;;;;199.00;192.00;13.50;47.60;;;;;;5055335;28;8878;-61
2021/10/30 00:38:02;;;;;;;;;197.00;193.00;13.50;47.60;;;;;;5053852;28;8815;-62
2021/10/30 00:40:28;;;;;;;;;219.00;205.00;13.60;48.10;;;;;;5055560;28;8807;-61
2021/10/30 00:42:54;;;;;;;;;198.25;185.25;13.50;47.80;;;;;;5055153;28;8810;-61
2021/10/30 00:45:19;;;;;;;;;203.00;191.00;13.50;47.90;;;;;;5055275;28;8855;-62
2021/10/30 00:47:45;;;;;;;;;213.00;201.50;13.50;48.20;;;;;;5055021;28;8916;-62
2021/10/30 00:50:11;;;;;;;;;209.75;195.25;13.40;48.70;;;;;;5055082;28;8783;-62
2021/10/30 00:52:39;;;;;;;;;209.25;200.00;13.50;48.80;;;;;;5055196;28;8767;-64
2021/10/30 00:55:11;;;;;;;;;182.00;160.00;13.50;48.40;;;;;;5054889;28;8775;-62
2021/10/30 00:57:40;;;;;;;;;211.75;200.50;13.50;48.70;;;;;;5054949;28;8763;-62
2021/10/30 01:00:08;;;;;;;;;206.00;196.00;13.40;48.50;;;;;;5054870;28;8771;-61
2021/10/30 01:02:34;;;;;;;;;207.50;201.75;13.40;48.60;;;;;;5055036;28;9469;-61
2021/10/30 01:05:00;;;;;;;;;218.00;207.75;13.40;47.80;;;;;;5054566;28;8863;-61
2021/10/30 01:07:27;;;;;;;;;222.50;204.25;13.40;47.70;;;;;;5055036;28;9574;-61
2021/10/30 01:09:53;;;;;;;;;211.25;199.75;13.30;47.70;;;;;;5054740;28;8775;-62
2021/10/30 01:12:19;;;;;;;;;212.25;203.25;13.30;47.50;;;;;;5054916;28;8775;-61
2021/10/30 01:14:46;;;;;;;;;224.75;209.50;13.30;48.00;;;;;;5054114;28;8767;-62
2021/10/30 01:17:12;;;;;;;;;214.75;199.00;13.20;48.60;;;;;;5054740;28;8829;-62
2021/10/30 01:19:38;;;;;;;;;240.00;225.50;13.20;48.40;;;;;;5054787;28;9441;-61
2021/10/30 01:22:04;;;;;;;;;248.25;237.25;13.10;47.90;;;;;;5054421;28;8818;-62
2021/10/30 01:24:30;;;;;;;;;260.50;243.75;13.20;47.20;;;;;;5054765;28;8870;-62
2021/10/30 01:26:56;;;;;;;;;260.00;238.00;13.20;46.70;;;;;;5054490;28;8953;-63
2021/10/30 01:29:22;;;;;;;;;252.75;233.75;13.20;46.80;;;;;;5054458;28;8759;-63
2021/10/30 01:31:49;;;;;;;;;230.25;215.50;13.20;47.00;;;;;;5054422;28;8767;-63
2021/10/30 01:34:15;;;;;;;;;242.25;223.25;13.10;47.00;;;;;;5054646;28;8767;-63
2021/10/30 01:36:41;;;;;;;;;211.75;204.25;13.10;46.70;;;;;;5054162;28;8814;-60
2021/10/30 01:39:09;;;;;;;;;205.75;193.00;13.10;46.90;;;;;;5054323;28;8759;-61
2021/10/30 01:41:35;;;;;;;;;248.00;231.50;13.00;46.80;;;;;;5054265;28;8906;-62
2021/10/30 01:44:02;;;;;;;;;219.75;204.75;12.90;47.00;;;;;;5054145;28;8856;-63
2021/10/30 01:46:28;;;;;;;;;223.75;198.00;12.90;47.40;;;;;;5054357;28;9013;-62
2021/10/30 01:48:54;;;;;;;;;202.50;194.50;13.00;48.30;;;;;;5054269;28;8775;-63
2021/10/30 01:51:21;;;;;;;;;215.00;204.75;12.90;48.40;;;;;;5054229;28;8817;-62
2021/10/30 01:53:48;;;;;;;;;216.25;208.75;13.00;48.40;;;;;;5054078;28;8786;-61
2021/10/30 01:56:14;;;;;;;;;235.75;221.25;13.00;47.80;;;;;;5052367;28;8771;-62
2021/10/30 01:58:40;;;;;;;;;219.75;211.25;12.90;47.40;;;;;;5054299;28;8798;-62
2021/10/30 02:01:07;;;;;;;;;214.75;204.50;12.80;47.40;;;;;;5054329;28;9468;-62
2021/10/30 02:03:33;;;;;;;;;211.75;201.50;12.80;47.10;;;;;;5053952;28;8822;-61
2021/10/30 02:06:01;;;;;;;;;228.75;212.75;12.80;46.90;;;;;;5054018;28;8806;-62
2021/10/30 02:08:29;;;;;;;;;207.25;190.25;12.80;46.80;;;;;;5054015;28;8803;-62
2021/10/30 02:10:55;;;;;;;;;201.25;185.25;12.80;47.10;;;;;;5054282;28;8759;-61
2021/10/30 02:13:22;;;;;;;;;195.50;185.00;12.80;47.00;;;;;;5054038;28;8793;-62
2021/10/30 02:15:48;;;;;;;;;229.75;216.25;12.80;47.10;;;;;;5053932;28;8803;-62
2021/10/30 02:18:14;;;;;;;;;218.50;202.75;12.80;46.60;;;;;;5054345;28;8914;-63
2021/10/30 02:20:41;;;;;;;;;196.25;187.50;12.70;46.60;;;;;;5054181;28;9728;-62
2021/10/30 02:23:07;;;;;;;;;219.75;202.00;12.60;47.30;;;;;;5053864;28;8803;-61
2021/10/30 02:25:33;;;;;;;;;195.75;185.00;12.50;47.30;;;;;;5053921;28;8775;-62
2021/10/30 02:27:59;;;;;;;;;188.75;178.25;12.50;47.40;;;;;;5056851;28;8775;-63
2021/10/30 02:30:25;;;;;;;;;203.75;192.75;12.40;48.00;;;;;;5057928;28;8751;-62
2021/10/30 02:32:51;;;;;;;;;199.50;190.75;12.40;47.70;;;;;;5057648;28;8790;-62
2021/10/30 02:35:17;;;;;;;;;195.25;185.75;12.40;47.80;;;;;;5057659;28;8763;-62
2021/10/30 02:37:43;;;;;;;;;208.00;196.75;12.40;47.60;;;;;;5057419;28;8799;-62
2021/10/30 02:40:10;;;;;;;;;211.00;191.25;12.30;47.30;;;;;;5057574;28;8832;-61
2021/10/30 02:42:36;;;;;;;;;210.00;201.25;12.30;47.60;;;;;;5057454;28;8802;-63
2021/10/30 02:45:04;;;;;;;;;206.00;195.50;12.20;47.80;;;;;;5057433;28;8763;-63
2021/10/30 02:47:30;;;;;;;;;215.50;204.75;12.20;47.70;;;;;;5057659;28;8813;-62
2021/10/30 02:49:56;;;;;;;;;212.50;190.25;12.30;47.70;;;;;;5057392;28;8775;-63
2021/10/30 02:52:22;;;;;;;;;221.00;206.75;12.30;47.70;;;;;;5057330;28;8774;-62
2021/10/30 02:54:48;;;;;;;;;214.25;200.75;12.30;47.60;;;;;;5057309;28;8775;-62
2021/10/30 02:57:14;;;;;;;;;190.00;184.25;12.30;47.80;;;;;;5057327;28;8783;-64
2021/10/30 02:59:40;;;;;;;;;194.25;189.25;12.30;47.40;;;;;;5057489;28;8881;-62
2021/10/30 03:02:06;;;;;;;;;200.75;189.25;12.20;47.60;;;;;;5057068;28;8884;-61
2021/10/30 03:04:32;;;;;;;;;212.50;193.00;12.20;47.60;;;;;;5057362;28;8775;-61
2021/10/30 03:06:58;;;;;;;;;213.75;202.25;12.10;47.60;;;;;;5054991;28;8787;-61
2021/10/30 03:09:24;;;;;;;;;203.50;192.25;12.10;47.80;;;;;;5055096;28;8776;-62
2021/10/30 03:11:49;;;;;;;;;234.50;219.50;12.10;47.40;;;;;;5056947;28;8791;-62
2021/10/30 03:14:16;;;;;;;;;236.75;221.75;12.10;48.10;;;;;;5056913;28;8759;-62
2021/10/30 03:16:42;;;;;;;;;223.75;214.25;12.10;48.00;;;;;;5056851;28;8952;-61
2021/10/30 03:19:08;;;;;;;;;215.25;203.75;12.00;47.80;;;;;;5052702;28;8817;-62
2021/10/30 03:21:34;;;;;;;;;235.25;221.75;12.00;47.10;;;;;;5036785;28;8791;-61
2021/10/30 03:24:00;;;;;;;;;221.00;208.50;12.00;47.00;;;;;;5037034;28;8848;-61
2021/10/30 03:26:26;;;;;;;;;213.25;208.25;12.00;47.00;;;;;;5037088;28;8770;-63
2021/10/30 03:28:52;;;;;;;;;237.50;219.50;12.00;47.10;;;;;;5049357;28;8840;-62
2021/10/30 03:31:18;;;;;;;;;238.00;228.50;11.90;47.80;;;;;;5056907;28;9475;-62
2021/10/30 03:33:44;;;;;;;;;226.00;211.75;11.90;48.20;;;;;;5056827;28;8816;-62
2021/10/30 03:36:10;;;;;;;;;232.50;222.25;11.80;48.60;;;;;;5056267;28;8876;-62
2021/10/30 03:38:37;;;;;;;;;225.75;210.00;11.80;48.90;;;;;;5054783;28;8767;-62
2021/10/30 03:41:03;;;;;;;;;211.50;205.25;11.80;49.90;;;;;;5056573;28;9393;-62
2021/10/30 03:43:29;;;;;;;;;224.75;213.75;11.80;48.80;;;;;;5045658;28;8821;-62
2021/10/30 03:45:55;;;;;;;;;220.00;201.25;11.80;48.70;;;;;;5056363;28;8771;-63
2021/10/30 03:48:21;;;;;;;;;223.25;217.00;11.80;48.80;;;;;;5056674;28;8795;-62
2021/10/30 03:50:47;;;;;;;;;215.00;202.00;11.80;48.60;;;;;;5049493;28;8785;-62
2021/10/30 03:53:13;;;;;;;;;234.25;217.00;11.80;48.40;;;;;;5036529;28;8900;-62
2021/10/30 03:55:39;;;;;;;;;210.50;193.00;11.80;48.30;;;;;;5036490;28;8808;-62
2021/10/30 03:58:06;;;;;;;;;207.25;195.75;11.80;47.60;;;;;;5036399;28;8769;-62
2021/10/30 04:00:32;;;;;;;;;203.75;190.75;11.80;47.40;;;;;;5039565;28;8807;-62
2021/10/30 04:02:58;;;;;;;;;197.00;179.50;11.80;47.10;;;;;;5056146;28;8899;-62
2021/10/30 04:05:24;;;;;;;;;183.25;174.25;11.70;46.80;;;;;;5056167;28;8781;-62
2021/10/30 04:07:50;;;;;;;;;182.25;173.25;11.60;46.70;;;;;;5056106;28;8755;-62
2021/10/30 04:10:16;;;;;;;;;171.00;158.75;11.60;46.70;;;;;;5056091;28;8751;-61
2021/10/30 04:12:42;;;;;;;;;181.25;170.75;11.50;47.20;;;;;;5055724;28;9425;-62
2021/10/30 04:15:08;;;;;;;;;208.25;196.25;11.50;47.60;;;;;;5056007;28;8786;-61
2021/10/30 04:17:34;;;;;;;;;213.25;199.00;11.50;47.80;;;;;;5056001;28;9477;-62
2021/10/30 04:20:00;;;;;;;;;201.50;194.25;11.60;47.60;;;;;;5055905;28;8759;-62
2021/10/30 04:22:26;;;;;;;;;198.00;191.25;11.60;47.40;;;;;;5045019;28;9459;-63
2021/10/30 04:24:53;;;;;;;;;194.50;190.25;11.60;47.20;;;;;;5035702;28;8880;-62
2021/10/30 04:27:19;;;;;;;;;198.25;187.25;11.60;47.20;;;;;;5035572;28;8790;-63
2021/10/30 04:29:45;;;;;;;;;188.25;181.75;11.60;47.40;;;;;;5035793;28;8769;-63
2021/10/30 04:32:12;;;;;;;;;190.50;180.50;11.60;46.80;;;;;;5035669;28;9479;-63
2021/10/30 04:37:15;;;;;;;;;175.75;164.25;11.60;46.90;;;;;;5035379;28;8812;-63
2021/10/30 04:39:49;;;;;;;;;185.50;177.50;11.60;46.70;;;;;;5043147;28;8786;-62
2021/10/30 04:42:16;;;;;;;;;188.75;183.50;11.50;47.00;;;;;;5044529;28;9595;-62
2021/10/30 04:44:43;;;;;;;;;193.00;181.25;11.50;47.20;;;;;;5054755;28;8786;-63
2021/10/30 04:47:13;;;;;;;;;190.50;177.75;11.60;47.30;;;;;;5055115;28;8835;-62
2021/10/30 04:49:40;;;;;;;;;220.25;206.25;11.60;47.30;;;;;;5054525;28;8771;-63
2021/10/30 04:52:07;;;;;;;;;207.50;196.00;11.60;47.20;;;;;;5054987;28;8763;-63
2021/10/30 04:54:33;;;;;;;;;176.00;165.50;11.50;47.50;;;;;;5047113;28;8797;-62
2021/10/30 04:56:59;;;;;;;;;211.00;197.75;11.50;47.50;;;;;;5035237;28;9450;-63
2021/10/30 04:59:25;;;;;;;;;207.25;200.50;11.50;47.40;;;;;;5054152;28;8775;-63
2021/10/30 05:01:51;;;;;;;;;205.75;193.75;11.50;47.40;;;;;;5054777;28;8759;-62
2021/10/30 05:04:17;;;;;;;;;213.00;202.00;11.60;47.40;;;;;;5054809;28;8810;-62
2021/10/30 05:06:42;;;;;;;;;219.00;205.50;11.50;47.60;;;;;;5054742;28;8778;-62
2021/10/30 05:09:08;;;;;;;;;228.00;212.75;11.50;48.40;;;;;;5054793;28;8790;-61
2021/10/30 05:11:34;;;;;;;;;210.25;192.75;11.50;48.90;;;;;;5054826;28;8802;-62
2021/10/30 05:14:00;;;;;;;;;213.50;201.00;11.50;49.70;;;;;;5054978;28;8802;-63
2021/10/30 05:16:26;;;;;;;;;215.25;201.75;11.50;50.10;;;;;;5054301;28;8850;-63
2021/10/30 05:18:52;;;;;;;;;227.25;213.00;11.50;49.80;;;;;;5054521;28;8767;-62
2021/10/30 05:21:17;;;;;;;;;234.50;222.50;11.50;49.00;;;;;;5034924;28;8835;-62
2021/10/30 05:23:43;;;;;;;;;249.00;226.75;11.50;48.40;;;;;;5034733;28;8817;-62
2021/10/30 05:26:09;;;;;;;;;236.75;226.50;11.50;48.20;;;;;;5034532;28;8770;-62
2021/10/30 05:28:35;;;;;;;;;232.25;214.00;11.50;48.30;;;;;;5034730;28;8765;-64
2021/10/30 05:31:02;;;;;;;;;244.25;222.00;11.50;49.00;;;;;;5034371;28;9470;-63
2021/10/30 05:33:28;;;;;;;;;206.00;196.75;11.40;48.70;;;;;;5034712;28;8789;-62
2021/10/30 05:35:54;;;;;;;;;227.75;215.25;11.50;49.50;;;;;;5034222;28;8770;-62
2021/10/30 05:38:20;;;;;;;;;180.25;166.50;11.40;49.50;;;;;;5034631;28;8789;-62
2021/10/30 05:40:47;;;;;;;;;219.25;200.25;11.40;50.60;;;;;;5034399;28;9474;-63
2021/10/30 05:43:14;;;;;;;;;178.50;169.00;11.40;50.80;;;;;;5034237;28;8835;-64
2021/10/30 05:45:42;;;;;;;;;199.50;177.00;11.50;51.10;;;;;;5034619;28;9581;-62
2021/10/30 05:48:09;;;;;;;;;144.25;131.75;11.40;51.30;;;;;;5034178;28;9692;-61
2021/10/30 05:50:35;;;;;;;;;163.00;160.00;11.50;51.10;;;;;;5034272;28;8773;-63
2021/10/30 05:53:01;;;;;;;;;179.50;174.00;11.50;51.10;;;;;;5034246;28;8791;-63
2021/10/30 05:55:27;;;;;;;;;192.00;184.00;11.40;51.00;;;;;;5034225;28;8750;-64
2021/10/30 05:57:53;;;;;;;;;189.25;180.75;11.40;51.20;;;;;;5034271;28;8773;-63
2021/10/30 06:00:19;;;;;;;;;189.25;181.50;11.50;51.30;;;;;;5034760;28;8766;-63
2021/10/30 06:02:45;;;;;;;;;191.75;183.50;11.40;52.40;;;;;;5053609;28;8812;-63
2021/10/30 06:05:11;;;;;;;;;181.25;161.75;11.50;51.20;;;;;;5038309;28;8742;-62
2021/10/30 06:07:38;;;;;;;;;182.00;178.75;11.50;50.90;;;;;;5038229;28;8872;-62
2021/10/30 06:10:08;;;;;;;;;194.75;177.75;11.60;50.90;;;;;;5038138;28;8785;-63
2021/10/30 06:12:38;;;;;;;;;198.25;187.75;11.60;50.50;;;;;;5038286;28;8762;-62
2021/10/30 06:15:06;;;;;;;;;194.50;181.25;11.50;50.70;;;;;;5038212;28;8781;-64
2021/10/30 06:17:32;;;;;;;;;205.00;189.75;11.60;50.90;;;;;;5038110;28;8931;-61
2021/10/30 06:19:57;;;;;;;;;219.50;202.50;11.60;51.00;;;;;;5053546;28;9018;-63
2021/10/30 06:22:23;;;;;;;;;264.25;237.75;11.50;51.10;;;;;;5049809;28;8803;-62
2021/10/30 06:24:49;;;;;;;;;246.75;236.00;11.60;51.20;;;;;;5049774;28;8795;-62
2021/10/30 06:27:15;;;;;;;;;243.25;221.00;11.70;51.30;;;;;;5053343;28;8799;-64
2021/10/30 06:29:41;;;;;;;;;227.25;205.50;11.60;51.30;;;;;;5057720;28;8863;-63
2021/10/30 06:32:07;;;;;;;;;263.00;232.50;11.70;51.10;;;;;;5052421;28;8778;-63
2021/10/30 06:34:33;;;;;;;;;243.00;228.00;11.70;51.10;;;;;;5046599;28;8786;-60
2021/10/30 06:36:58;;;;;;;;;252.50;235.50;11.70;51.10;;;;;;5037498;28;8821;-58
2021/10/30 06:39:24;;;;;;;;;264.00;239.75;11.70;51.20;;;;;;5037779;28;8844;-57
2021/10/30 06:41:50;;;;;;;;;235.00;214.00;11.80;51.30;;;;;;5037421;28;8761;-59
2021/10/30 06:44:18;;;;;;;;;251.50;240.00;11.80;51.00;;;;;;5037452;28;8812;-59
2021/10/30 06:46:44;;;;;;;;;233.75;222.00;11.70;51.00;;;;;;5037467;28;9487;-60
2021/10/30 06:49:12;;;;;;;;;236.25;223.00;11.80;50.60;;;;;;5037648;28;9577;-59
2021/10/30 06:51:39;;;;;;;;;222.75;215.50;11.80;50.60;;;;;;5037408;28;8785;-59
2021/10/30 06:54:06;;;;;;;;;236.25;213.00;11.80;50.50;;;;;;5037380;28;8753;-60
2021/10/30 06:56:36;;;;;;;;;221.50;208.75;11.90;50.30;;;;;;5037164;28;8842;-60
2021/10/30 06:59:04;;;;;;;;;211.50;199.25;11.90;50.30;;;;;;5037174;28;8852;-60
2021/10/30 07:01:30;;;;;;;;;237.75;210.50;12.00;50.30;;;;;;5037316;28;9462;-59
2021/10/30 07:03:56;;;;;;;;;227.00;207.75;12.00;50.40;;;;;;5037302;28;9467;-60
2021/10/30 07:06:23;;;;;;;;;240.25;223.00;12.10;51.50;;;;;;5037086;28;8796;-59
2021/10/30 07:08:49;;;;;;;;;195.50;181.75;12.10;50.50;;;;;;5037161;28;8770;-59
2021/10/30 07:11:15;;;;;;;;;206.75;199.75;12.10;50.20;;;;;;5036916;28;8777;-57
2021/10/30 07:13:41;;;;;;;;;211.75;207.75;12.00;50.20;;;;;;5035990;28;8792;-59
2021/10/30 07:16:09;;;;;;;;;215.00;201.25;12.20;50.00;;;;;;5036857;28;8773;-59
2021/10/30 07:18:35;;;;;;;;;216.75;205.25;12.20;50.20;;;;;;5037039;28;8778;-60
2021/10/30 07:21:01;;;;;;;;;223.50;206.75;12.30;49.80;;;;;;5039407;28;9513;-60
2021/10/30 07:23:26;;;;;;;;;216.75;197.00;12.40;50.00;;;;;;5047874;28;9011;-60
2021/10/30 07:25:52;;;;;;;;;214.75;199.25;12.30;49.80;;;;;;5043794;28;8774;-59
2021/10/30 07:28:18;;;;;;;;;243.75;223.25;12.40;49.90;;;;;;5050145;28;8779;-59
2021/10/30 07:30:44;;;;;;;;;219.75;202.00;12.40;50.10;;;;;;5040799;28;8785;-60
2021/10/30 07:33:10;;;;;;;;;238.25;221.50;12.40;50.30;;;;;;5050616;28;8822;-63
2021/10/30 07:35:36;;;;;;;;;219.00;200.50;12.50;50.40;;;;;;5043995;28;8797;-63
2021/10/30 07:38:02;;;;;;;;;212.50;202.25;12.50;50.10;;;;;;5049217;28;8787;-63
2021/10/30 07:40:29;;;;;;;;;207.25;202.25;12.50;50.20;;;;;;5042717;28;8786;-62
2021/10/30 07:42:56;;;;;;;;;240.00;226.00;12.60;50.50;;;;;;5036462;28;8805;-63
2021/10/30 07:45:22;;;;;;;;;227.25;210.50;12.60;51.70;;;;;;5047497;28;8779;-60
2021/10/30 07:47:48;;;;;;;;;229.00;214.75;12.70;50.50;;;;;;5044366;28;8859;-62
2021/10/30 07:50:14;;;;;;;;;189.75;181.25;12.90;50.50;;;;;;5056137;28;8775;-62
2021/10/30 07:52:40;;;;;;;;;184.00;172.75;12.90;50.90;;;;;;5056300;28;8798;-64
2021/10/30 07:55:07;;;;;;;;;189.25;178.00;13.00;50.90;;;;;;5048784;28;8846;-62
2021/10/30 07:57:33;;;;;;;;;178.75;171.25;13.10;50.70;;;;;;5036245;28;8871;-61
2021/10/30 07:59:58;;;;;;;;;166.50;158.00;13.30;50.30;;;;;;5036310;28;8782;-62
2021/10/30 08:02:24;;;;;;;;;157.25;150.25;13.40;50.00;;;;;;5043510;28;8814;-62
2021/10/30 08:04:50;;;;;;;;;161.25;156.00;13.50;49.90;;;;;;5043359;28;8904;-62
2021/10/30 08:07:16;;;;;;;;;162.50;157.00;13.70;49.90;;;;;;5054633;28;8791;-61
2021/10/30 08:09:43;;;;;;;;;169.00;161.50;13.80;49.50;;;;;;5055991;28;8786;-60
2021/10/30 08:12:12;;;;;;;;;166.75;159.50;13.90;49.30;;;;;;5047974;28;8777;-61
2021/10/30 08:14:38;;;;;;;;;170.75;158.00;14.10;49.30;;;;;;5040572;28;8787;-61
2021/10/30 08:17:05;;;;;;;;;156.50;149.25;14.20;49.20;;;;;;5049353;28;8829;-59
2021/10/30 08:19:31;;;;;;;;;145.75;143.00;14.30;49.10;;;;;;5054687;28;8895;-62
2021/10/30 08:21:57;;;;;;;;;141.25;136.00;14.40;48.70;;;;;;5051546;28;8775;-60
2021/10/30 08:24:24;;;;;;;;;139.25;135.00;14.60;48.50;;;;;;5054030;28;8775;-60
2021/10/30 08:26:50;;;;;;;;;126.25;123.50;14.70;48.50;;;;;;5054315;28;9413;-63
2021/10/30 08:29:16;;;;;;;;;135.50;133.75;14.80;48.30;;;;;;5054134;28;8877;-61
2021/10/30 08:31:42;;;;;;;;;127.50;125.50;14.90;47.80;;;;;;5054162;28;8841;-61
2021/10/30 08:34:07;;;;;;;;;131.50;123.00;15.10;47.90;;;;;;5053891;28;9472;-62
2021/10/30 08:36:33;;;;;;;;;127.25;121.75;15.20;47.80;;;;;;5053814;28;8926;-62
2021/10/30 08:39:00;;;;;;;;;118.25;113.25;15.30;47.40;;;;;;5054357;28;9555;-62
2021/10/30 08:41:26;;;;;;;;;113.75;109.75;15.40;47.90;;;;;;5054083;28;8771;-62
2021/10/30 08:43:52;;;;;;;;;128.50;122.50;15.60;47.80;;;;;;5053754;28;8799;-63
2021/10/30 08:46:18;;;;;;;;;123.00;119.50;15.70;47.20;;;;;;5053854;28;8775;-62
2021/10/30 08:48:45;;;;;;;;;121.75;118.75;15.80;46.50;;;;;;5053787;28;8752;-62
2021/10/30 08:51:11;;;;;;;;;119.00;116.25;15.90;47.50;;;;;;5054087;28;8802;-62
2021/10/30 08:53:37;;;;;;;;;110.50;105.00;16.00;46.30;;;;;;5051110;28;8775;-63
2021/10/30 08:56:04;;;;;;;;;108.00;105.75;16.10;47.20;;;;;;5053309;28;8767;-61
2021/10/30 08:58:31;;;;;;;;;103.25;102.50;16.30;46.70;;;;;;5049712;28;9716;-63
2021/10/30 09:00:59;;;;;;;;;104.00;101.50;16.40;46.60;;;;;;5048964;28;8783;-66
2021/10/30 09:03:26;;;;;;;;;105.00;103.25;16.50;47.50;;;;;;5036770;28;8810;-61
2021/10/30 09:05:58;;;;;;;;;93.75;92.00;16.70;46.40;;;;;;5043738;28;8847;-60
2021/10/30 09:08:28;;;;;;;;;106.50;103.50;16.80;45.90;;;;;;5037348;28;8766;-66
2021/10/30 09:11:01;;;;;;;;;113.25;108.50;16.90;46.20;;;;;;5036842;28;8781;-64
2021/10/30 09:13:29;;;;;;;;;149.75;144.25;17.10;46.10;;;;;;5059225;28;8837;-63
2021/10/30 09:15:56;;;;;;;;;164.00;156.50;17.20;45.60;;;;;;5054779;28;9491;-63
2021/10/30 09:18:39;;;;;;;;;55.00;47.00;17.40;45.00;;;;;;5054264;28;8799;-64
2021/10/30 09:21:05;;;;;;;;;34.25;33.25;17.50;41.60;;;;;;5043556;28;8773;-62
2021/10/30 09:23:44;;;;;;;;;35.75;34.75;17.70;39.80;;;;;;5034376;28;8831;-63
2021/10/30 09:26:22;;;;;;;;;34.33;33.67;17.90;39.60;;;;;;5036435;28;8773;-64
2021/10/30 09:28:54;;;;;;;;;35.00;33.00;18.20;38.90;;;;;;5054403;28;9471;-67
2021/10/30 09:31:24;;;;;;;;;39.25;36.00;18.40;39.30;;;;;;5052781;28;9490;-61
2021/10/30 09:34:07;;;;;;;;;33.67;33.00;18.60;38.50;;;;;;5034710;28;9608;-64
2021/10/30 09:36:38;;;;;;;;;32.33;31.33;18.70;37.00;;;;;;5033796;28;8809;-65
2021/10/30 09:39:15;;;;;;;;;34.33;33.00;19.00;37.60;;;;;;5033391;28;8785;-67
2021/10/30 09:41:47;;;;;;;;;36.00;35.00;19.10;36.00;;;;;;5034399;28;8781;-64
2021/10/30 09:44:23;;;;;;;;;41.75;37.00;19.30;36.50;;;;;;5034173;28;8829;-66
2021/10/30 09:46:52;;;;;;;;;38.00;35.00;19.60;37.00;;;;;;5034251;28;8813;-62
2021/10/30 09:49:24;;;;;;;;;30.33;30.00;19.70;35.20;;;;;;5034209;28;8805;-61
2021/10/30 09:52:05;;;;;;;;;34.33;32.67;19.70;34.10;;;;;;5033992;28;8807;-62
2021/10/30 09:54:35;;;;;;;;;34.33;32.33;19.90;34.30;;;;;;5051761;28;8771;-64
2021/10/30 09:57:03;;;;;;;;;35.33;34.00;20.10;34.70;;;;;;5053977;28;8790;-61
2021/10/30 09:59:37;;;;;;;;;34.33;33.00;20.50;34.10;;;;;;5054216;28;8883;-65
2021/10/30 10:02:05;;;;;;;;;32.67;31.00;20.90;33.10;;;;;;5054154;28;9506;-62
2021/10/30 10:04:32;;;;;;;;;32.33;31.33;21.30;32.00;;;;;;5053924;28;9483;-64
2021/10/30 10:06:59;;;;;;;;;27.00;27.00;21.70;31.70;;;;;;5054520;28;8794;-62
2021/10/30 10:09:24;;;;;;;;;33.33;33.00;22.00;30.70;;;;;;5054087;28;8759;-64
2021/10/30 10:11:52;;;;;;;;;33.67;32.00;22.30;30.20;;;;;;5053924;28;8790;-60
2021/10/30 10:14:22;;;;;;;;;30.00;30.00;22.50;29.70;;;;;;5053985;28;8777;-62
2021/10/30 10:16:50;;;;;;;;;25.00;25.00;22.80;29.30;;;;;;5053783;28;8815;-61
2021/10/30 10:19:20;;;;;;;;;27.00;27.00;22.80;28.70;;;;;;5053821;28;8856;-64
2021/10/30 10:21:52;;;;;;;;;24.00;24.00;23.00;28.50;;;;;;5053790;28;8787;-62
2021/10/30 10:24:29;;;;;;;;;19.67;19.67;23.20;27.90;;;;;;5053530;28;8803;-64
2021/10/30 10:26:55;;;;;;;;;16.33;16.33;23.60;27.30;;;;;;5053700;28;9423;-61
2021/10/30 10:29:58;;;;;;;;;21.00;21.00;24.20;26.50;;;;;;5054029;28;8771;-62
2021/10/30 10:32:26;;;;;;;;;29.67;29.67;25.60;26.50;;;;;;5011423;28;8815;-61
2021/10/30 10:35:02;;;;;;;;;30.00;30.00;26.80;25.30;;;;;;5012048;28;8784;-60
2021/10/30 10:37:28;;;;;;;;;32.67;32.00;27.80;25.20;;;;;;5011766;28;8855;-61
2021/10/30 10:39:57;;;;;;;;;33.33;32.00;29.50;23.80;;;;;;5012101;28;8760;-63
2021/10/30 10:42:34;;;;;;;;;29.33;29.33;30.20;22.20;;;;;;5011640;28;8805;-64
2021/10/30 10:45:10;;;;;;;;;36.33;34.00;30.70;21.90;;;;;;5011850;28;8804;-62
2021/10/30 10:47:36;;;;;;;;;33.00;31.67;31.00;21.50;;;;;;5012551;28;8792;-62
2021/10/30 10:50:35;;;;;;;;;33.00;32.00;32.40;21.20;;;;;;5015551;28;8760;-69
2021/10/30 10:53:13;;;;;;;;;30.33;30.00;32.90;20.40;;;;;;5015458;28;9553;-64
2021/10/30 10:56:00;;;;;;;;;26.67;26.67;33.20;20.20;;;;;;5015346;28;8784;-64
2021/10/30 10:58:26;;;;;;;;;27.00;27.00;34.20;19.30;;;;;;5014930;28;11501;-65
2021/10/30 11:01:04;;;;;;;;;29.00;29.00;34.40;18.90;;;;;;5015160;28;11498;-64
2021/10/30 11:03:31;;;;;;;;;25.00;25.00;35.50;18.70;;;;;;5004652;28;8827;-64
2021/10/30 11:06:03;;;;;;;;;25.33;25.33;35.80;18.20;;;;;;5015084;28;11505;-64
2021/10/30 11:08:30;;;;;;;;;25.67;25.00;36.60;17.60;;;;;;5023162;28;11629;-63
2021/10/30 11:11:14;;;;;;;;;28.00;28.00;36.70;17.40;;;;;;5036927;28;11491;-64
2021/10/30 11:13:53;;;;;;;;;30.33;30.00;37.60;16.80;;;;;;5036798;28;11588;-63
2021/10/30 11:16:28;;;;;;;;;27.00;27.00;38.10;16.80;;;;;;5036769;28;11516;-64
2021/10/30 11:19:23;;;;;;;;;28.33;28.33;38.50;16.10;;;;;;5037083;28;11470;-64
2021/10/30 11:21:56;;;;;;;;;31.33;30.33;37.20;16.20;;;;;;5035824;28;11528;-64
2021/10/30 11:24:27;;;;;;;;;22.33;22.33;37.20;16.80;;;;;;5036452;28;11523;-62
2021/10/30 11:27:07;;;;;;;;;21.75;21.75;37.50;16.20;;;;;;5038035;28;11623;-65
2021/10/30 11:29:34;;;;;;;;;26.25;26.25;37.30;16.60;;;;;;5036538;28;11603;-62
2021/10/30 11:32:03;;;;;;;;;28.33;28.33;37.60;16.10;;;;;;5043726;28;11597;-63
2021/10/30 11:34:29;;;;;;;;;27.67;27.67;37.90;16.20;;;;;;5056466;28;11531;-63
2021/10/30 11:36:56;;;;;;;;;26.67;26.67;37.40;15.80;;;;;;5056322;28;11653;-63
2021/10/30 11:39:24;;;;;;;;;28.33;28.33;36.90;16.20;;;;;;5056312;28;11515;-63
2021/10/30 11:41:50;;;;;;;;;26.33;26.33;38.00;16.30;;;;;;5056227;28;11489;-63
2021/10/30 11:44:18;;;;;;;;;30.33;30.00;38.10;16.00;;;;;;5055491;28;11539;-63
2021/10/30 11:46:50;;;;;;;;;28.67;28.67;37.40;15.70;;;;;;5054926;28;11666;-63
2021/10/30 11:49:24;;;;;;;;;25.00;25.00;37.50;16.10;;;;;;5056262;28;11500;-62
2021/10/30 11:51:50;;;;;;;;;24.33;24.33;38.40;16.00;;;;;;5056337;28;11491;-63
2021/10/30 11:54:21;;;;;;;;;27.33;27.33;38.70;15.80;;;;;;5056075;28;11607;-63
2021/10/30 11:56:49;;;;;;;;;24.25;24.25;39.50;15.60;;;;;;5056257;28;11566;-67
2021/10/30 12:02:24;;;;;;;;;21.67;21.67;36.40;18.30;;;;;;5088418;27;13552;-65
2021/10/30 12:04:49;;;;;;;;;25.00;25.00;34.60;19.80;;;;;;5091771;28;11491;-67
2021/10/30 12:07:15;;;;;;;;;21.00;21.00;33.30;20.80;;;;;;4978725;27;10946;-67
2021/10/30 12:09:43;;;;;;;;;18.25;18.25;32.40;21.70;;;;;;5027657;28;8858;-67
2021/10/30 12:12:24;;;;;;;;;27.00;27.00;31.70;22.40;;;;;;4979599;28;11992;-65
2021/10/30 12:14:53;;;;;;;;;24.67;24.00;31.20;22.90;;;;;;4996712;28;12698;-71
2021/10/30 12:19:05;;;;;;;;;25.00;25.00;30.50;38.30;;;;;;4876144;27;13494;-80
2021/10/30 12:21:40;;;;;;;;;23.33;23.33;30.10;23.40;;;;;;4710767;28;12552;-79
2021/10/30 12:24:11;;;;;;;;;25.33;25.33;30.00;25.10;;;;;;4867433;28;12712;-79
2021/10/30 12:26:56;;;;;;;;;25.00;25.00;29.70;26.00;;;;;;4948524;28;11831;-80
2021/10/30 12:29:24;;;;;;;;;23.33;23.33;29.40;26.80;;;;;;4974043;28;13205;-81
2021/10/30 12:32:03;;;;;;;;;23.00;23.00;29.30;27.30;;;;;;5037925;28;11616;-79